createdAt,value
2022-10-31T00:00:10.056Z,3.17
2022-10-31T00:02:39.979Z,2.63
2022-10-31T00:05:07.608Z,3.17
2022-10-31T00:07:40.648Z,3.10
2022-10-31T00:10:08.736Z,3.47
2022-10-31T00:12:39.302Z,3.20
2022-10-31T00:15:09.996Z,3.28
2022-10-31T00:17:37.585Z,2.80
2022-10-31T00:20:10.420Z,3.03
2022-10-31T00:22:40.341Z,3.55
2022-10-31T00:25:10.306Z,2.95
2022-10-31T00:27:37.975Z,3.67
2022-10-31T00:30:10.673Z,3.55
2022-10-31T00:32:52.668Z,2.92
2022-10-31T00:35:40.237Z,2.90
2022-10-31T00:38:25.510Z,3.08
2022-10-31T00:40:53.264Z,3.20
2022-10-31T00:43:22.373Z,3.63
2022-10-31T00:46:16.719Z,3.58
2022-10-31T00:48:47.011Z,3.13
2022-10-31T00:51:26.239Z,3.28
2022-10-31T00:54:02.327Z,2.75
2022-10-31T00:56:49.741Z,2.95
2022-10-31T00:59:22.440Z,2.97
2022-10-31T01:01:50.521Z,2.90
2022-10-31T01:04:26.597Z,2.85
2022-10-31T01:06:57.397Z,2.88
2022-10-31T01:09:30.367Z,3.10
2022-10-31T01:11:57.772Z,3.10
2022-10-31T01:14:25.354Z,3.15
2022-10-31T01:16:52.772Z,3.08
2022-10-31T01:19:25.450Z,2.97
2022-10-31T01:21:56.909Z,3.33
2022-10-31T01:24:32.533Z,2.85
2022-10-31T01:27:02.230Z,2.95
2022-10-31T01:29:41.222Z,2.88
2022-10-31T01:32:12.670Z,3.08
2022-10-31T01:34:41.392Z,3.15
2022-10-31T01:37:26.551Z,3.42
2022-10-31T01:39:54.167Z,2.90
2022-10-31T01:42:25.775Z,3.33
2022-10-31T01:45:16.276Z,2.50
2022-10-31T01:47:50.144Z,2.53
2022-10-31T01:50:35.867Z,2.72
2022-10-31T01:53:09.729Z,2.33
2022-10-31T01:55:49.347Z,2.60
2022-10-31T01:58:23.227Z,2.63
2022-10-31T02:01:00.523Z,2.55
2022-10-31T02:03:34.172Z,2.30
2022-10-31T02:06:10.411Z,2.47
2022-10-31T02:08:42.996Z,2.50
2022-10-31T02:11:13.620Z,2.53
2022-10-31T02:13:45.664Z,2.25
2022-10-31T02:16:18.365Z,2.50
2022-10-31T02:18:53.189Z,2.25
2022-10-31T02:21:35.967Z,2.60
2022-10-31T02:27:16.992Z,1.80
2022-10-31T02:30:09.741Z,1.98
2022-10-31T02:32:56.429Z,2.00
2022-10-31T02:35:34.568Z,1.70
2022-10-31T02:38:28.961Z,2.45
2022-10-31T02:41:19.630Z,2.20
2022-10-31T02:44:29.306Z,2.00
2022-10-31T02:47:13.889Z,2.38
2022-10-31T02:49:59.434Z,2.30
2022-10-31T02:52:29.676Z,2.03
2022-10-31T02:55:35.221Z,2.33
2022-10-31T02:58:15.003Z,2.17
2022-10-31T03:01:02.149Z,2.13
2022-10-31T03:04:10.856Z,1.92
2022-10-31T03:06:54.748Z,1.50
2022-10-31T03:09:26.506Z,1.73
2022-10-31T03:11:56.446Z,2.80
2022-10-31T03:14:54.376Z,2.15
2022-10-31T03:18:24.565Z,1.88
2022-10-31T03:24:24.723Z,1.42
2022-10-31T03:27:16.001Z,1.83
2022-10-31T03:30:07.405Z,1.70
2022-10-31T03:37:20.427Z,1.60
2022-10-31T03:39:50.668Z,1.70
2022-10-31T03:42:31.349Z,1.98
2022-10-31T03:45:11.503Z,1.77
2022-10-31T03:50:11.840Z,1.60
2022-10-31T03:52:52.262Z,1.73
2022-10-31T03:55:29.939Z,1.52
2022-10-31T03:58:21.203Z,1.58
2022-10-31T04:00:51.924Z,1.92
2022-10-31T04:03:28.721Z,1.92
2022-10-31T04:06:00.994Z,1.55
2022-10-31T04:08:32.975Z,1.92
2022-10-31T04:11:02.977Z,1.85
2022-10-31T04:13:35.032Z,1.70
2022-10-31T04:16:15.964Z,1.95
2022-10-31T04:18:45.160Z,1.88
2022-10-31T04:21:12.273Z,2.08
2022-10-31T04:23:42.323Z,2.00
2022-10-31T04:26:19.227Z,1.88
2022-10-31T04:28:47.430Z,1.55
2022-10-31T04:31:15.236Z,1.98
2022-10-31T04:33:44.116Z,2.03
2022-10-31T04:36:12.303Z,1.60
2022-10-31T04:38:42.852Z,2.13
2022-10-31T04:41:22.765Z,1.25
2022-10-31T04:44:00.811Z,1.90
2022-10-31T04:46:31.288Z,2.53
2022-10-31T04:48:59.737Z,1.88
2022-10-31T04:51:26.999Z,1.80
2022-10-31T04:53:54.277Z,1.50
2022-10-31T04:56:39.781Z,2.00
2022-10-31T04:59:14.098Z,1.75
2022-10-31T05:01:49.017Z,2.08
2022-10-31T05:04:19.354Z,1.58
2022-10-31T05:06:49.604Z,1.92
2022-10-31T05:09:16.830Z,1.73
2022-10-31T05:11:44.356Z,1.90
2022-10-31T05:17:25.969Z,1.48
2022-10-31T05:20:12.779Z,1.73
2022-10-31T05:23:04.665Z,1.58
2022-10-31T05:25:32.036Z,1.20
2022-10-31T05:28:06.009Z,1.63
2022-10-31T05:30:35.108Z,1.88
2022-10-31T05:33:07.714Z,1.70
2022-10-31T05:35:54.388Z,1.85
2022-10-31T05:38:30.263Z,2.35
2022-10-31T05:41:04.488Z,1.90
2022-10-31T05:43:38.485Z,1.73
2022-10-31T05:46:12.200Z,1.55
2022-10-31T05:49:15.013Z,1.33
2022-10-31T05:52:00.554Z,2.08
2022-10-31T05:54:39.422Z,1.75
2022-10-31T05:57:06.729Z,2.50
2022-10-31T05:59:33.843Z,2.13
2022-10-31T06:02:01.902Z,2.05
2022-10-31T06:04:51.721Z,2.67
2022-10-31T06:08:40.871Z,2.45
2022-10-31T06:11:41.988Z,1.55
2022-10-31T06:14:12.031Z,1.77
2022-10-31T06:17:06.144Z,1.52
2022-10-31T06:19:56.508Z,2.08
2022-10-31T06:34:27.645Z,1.02
2022-10-31T06:36:55.023Z,1.55
2022-10-31T06:39:25.392Z,1.65
2022-10-31T06:41:54.035Z,1.85
2022-10-31T06:44:25.028Z,2.58
2022-10-31T06:46:55.195Z,1.90
2022-10-31T06:49:42.508Z,2.33
2022-10-31T06:52:13.942Z,2.25
2022-10-31T06:54:41.665Z,2.08
2022-10-31T06:57:09.468Z,1.98
2022-10-31T06:59:38.454Z,2.03
2022-10-31T07:02:05.982Z,2.60
2022-10-31T07:04:34.501Z,2.45
2022-10-31T07:07:05.138Z,2.55
2022-10-31T07:09:36.077Z,2.50
2022-10-31T07:12:05.586Z,2.22
2022-10-31T07:14:40.985Z,2.45
2022-10-31T07:17:08.316Z,2.20
2022-10-31T07:19:40.175Z,2.07
2022-10-31T07:22:09.619Z,2.80
2022-10-31T07:24:38.901Z,2.13
2022-10-31T07:27:43.326Z,2.20
2022-10-31T07:30:17.420Z,3.17
2022-10-31T07:32:51.452Z,2.47
2022-10-31T07:35:25.124Z,2.88
2022-10-31T07:38:07.484Z,3.55
2022-10-31T07:40:34.636Z,3.60
2022-10-31T07:43:01.689Z,4.18
2022-10-31T07:46:07.263Z,3.53
2022-10-31T07:48:53.034Z,3.78
2022-10-31T07:51:41.601Z,3.45
2022-10-31T07:54:31.666Z,3.40
2022-10-31T07:56:58.892Z,3.67
2022-10-31T07:59:28.957Z,3.95
2022-10-31T08:01:56.272Z,4.90
2022-10-31T08:05:01.464Z,4.20
2022-10-31T08:08:07.695Z,4.15
2022-10-31T08:10:36.114Z,4.45
2022-10-31T08:13:06.526Z,4.88
2022-10-31T08:15:38.271Z,5.75
2022-10-31T08:18:06.985Z,4.70
2022-10-31T08:20:34.620Z,4.78
2022-10-31T08:23:06.077Z,5.15
2022-10-31T08:25:38.666Z,4.88
2022-10-31T08:28:12.052Z,5.95
2022-10-31T08:30:42.595Z,4.82
2022-10-31T08:33:35.765Z,5.38
2022-10-31T08:36:29.627Z,5.35
2022-10-31T08:39:06.610Z,4.40
2022-10-31T08:41:36.840Z,4.95
2022-10-31T08:44:16.882Z,5.07
2022-10-31T08:46:44.527Z,4.43
2022-10-31T08:49:11.689Z,5.68
2022-10-31T08:51:41.272Z,4.95
2022-10-31T08:54:08.443Z,4.97
2022-10-31T08:57:10.522Z,5.15
2022-10-31T08:59:45.050Z,5.60
2022-10-31T09:02:21.078Z,5.63
2022-10-31T09:04:50.997Z,4.75
2022-10-31T09:07:25.453Z,5.60
2022-10-31T09:09:53.987Z,5.43
2022-10-31T09:12:25.435Z,5.22
2022-10-31T09:15:11.276Z,4.68
2022-10-31T09:17:51.785Z,5.57
2022-10-31T09:20:30.229Z,4.95
2022-10-31T09:23:02.096Z,4.70
2022-10-31T09:25:50.883Z,4.68
2022-10-31T09:28:37.670Z,5.55
2022-10-31T09:31:09.308Z,5.35
2022-10-31T09:33:53.924Z,5.50
2022-10-31T09:39:19.675Z,4.40
2022-10-31T09:42:35.262Z,4.80
2022-10-31T09:45:33.297Z,5.50
2022-10-31T09:48:29.900Z,5.72
2022-10-31T09:51:18.586Z,5.95
2022-10-31T09:54:30.768Z,4.85
2022-10-31T09:57:03.352Z,5.60
2022-10-31T09:59:35.095Z,5.93
2022-10-31T10:02:14.386Z,5.57
2022-10-31T10:04:59.429Z,4.85
2022-10-31T10:07:51.018Z,4.72
2022-10-31T10:10:56.333Z,5.30
2022-10-31T10:13:37.057Z,5.95
2022-10-31T10:16:37.374Z,5.72
2022-10-31T10:19:43.291Z,6.07
2022-10-31T10:22:22.634Z,5.47
2022-10-31T10:25:08.705Z,5.55
2022-10-31T10:28:08.280Z,6.35
2022-10-31T10:30:43.928Z,7.10
2022-10-31T10:33:15.135Z,6.28
2022-10-31T10:35:47.716Z,7.47
2022-10-31T10:40:56.574Z,5.55
2022-10-31T10:43:38.172Z,6.13
2022-10-31T10:46:39.457Z,5.57
2022-10-31T10:49:06.550Z,5.47
2022-10-31T10:52:13.257Z,6.30
2022-10-31T10:55:00.666Z,6.50
2022-10-31T10:57:39.319Z,6.10
2022-10-31T11:00:36.808Z,7.10
2022-10-31T11:03:06.366Z,6.35
2022-10-31T11:05:48.205Z,7.28
2022-10-31T11:08:33.150Z,6.82
2022-10-31T11:11:00.650Z,6.80
2022-10-31T11:13:28.417Z,7.28
2022-10-31T11:16:03.194Z,6.88
2022-10-31T11:18:41.152Z,6.93
2022-10-31T11:21:22.855Z,7.18
2022-10-31T11:23:52.153Z,6.77
2022-10-31T11:26:25.730Z,6.25
2022-10-31T11:29:03.309Z,7.57
2022-10-31T11:31:35.862Z,7.65
2022-10-31T11:34:08.756Z,7.70
2022-10-31T11:36:39.380Z,7.57
2022-10-31T11:39:20.880Z,8.10
2022-10-31T11:41:53.715Z,6.78
2022-10-31T11:44:24.992Z,7.00
2022-10-31T11:46:55.696Z,7.03
2022-10-31T11:49:45.067Z,7.70
2022-10-31T11:52:23.438Z,8.00
2022-10-31T11:55:14.121Z,7.65
2022-10-31T11:57:50.279Z,8.20
2022-10-31T12:00:35.796Z,8.75
2022-10-31T12:03:15.635Z,8.48
2022-10-31T12:05:48.693Z,8.55
2022-10-31T12:08:15.992Z,8.18
2022-10-31T12:11:20.006Z,8.50
2022-10-31T12:14:33.245Z,7.70
2022-10-31T12:17:25.753Z,6.93
2022-10-31T12:20:01.905Z,6.95
2022-10-31T12:22:45.738Z,8.20
2022-10-31T12:25:20.452Z,7.47
2022-10-31T12:28:08.956Z,8.93
2022-10-31T12:30:57.617Z,8.68
2022-10-31T12:33:48.243Z,6.95
2022-10-31T12:36:41.602Z,7.93
2022-10-31T12:39:17.311Z,8.60
2022-10-31T12:45:57.540Z,7.65
2022-10-31T12:49:00.438Z,8.50
2022-10-31T12:51:41.875Z,8.02
2022-10-31T12:54:37.634Z,8.15
2022-10-31T12:57:28.574Z,8.07
2022-10-31T13:00:13.229Z,8.18
2022-10-31T13:02:57.976Z,8.07
2022-10-31T13:05:35.662Z,7.63
2022-10-31T13:08:11.122Z,7.65
2022-10-31T13:11:09.237Z,7.57
2022-10-31T13:13:45.738Z,9.05
2022-10-31T13:16:56.116Z,8.80
2022-10-31T13:19:44.725Z,7.72
2022-10-31T13:22:26.991Z,8.25
2022-10-31T13:25:19.479Z,7.65
2022-10-31T13:28:03.165Z,7.90
2022-10-31T13:30:49.980Z,7.18
2022-10-31T13:33:22.750Z,7.72
2022-10-31T13:35:57.119Z,7.55
2022-10-31T13:38:40.310Z,8.05
2022-10-31T13:41:35.117Z,8.23
2022-10-31T13:44:28.261Z,7.60
2022-10-31T13:47:00.176Z,7.85
2022-10-31T13:49:30.465Z,7.85
2022-10-31T13:52:25.243Z,7.30
2022-10-31T13:54:58.109Z,6.85
2022-10-31T13:57:44.377Z,8.25
2022-10-31T14:00:20.577Z,8.93
2022-10-31T14:02:50.172Z,7.38
2022-10-31T14:05:32.355Z,7.60
2022-10-31T14:08:04.991Z,7.88
2022-10-31T14:10:38.484Z,7.07
2022-10-31T14:13:35.606Z,7.78
2022-10-31T14:16:08.221Z,7.40
2022-10-31T14:18:46.846Z,6.85
2022-10-31T14:21:26.582Z,7.63
2022-10-31T14:24:02.947Z,8.02
2022-10-31T14:26:43.713Z,8.35
2022-10-31T14:29:17.319Z,7.25
2022-10-31T14:32:17.386Z,11.57
2022-10-31T14:43:23.165Z,8.40
2022-10-31T14:47:05.947Z,8.10
2022-10-31T14:54:01.909Z,7.70
2022-10-31T15:04:17.577Z,6.85
2022-10-31T15:06:55.600Z,8.30
2022-10-31T15:09:36.211Z,7.00
2022-10-31T15:16:27.202Z,7.03
2022-10-31T15:24:20.643Z,6.95
2022-10-31T15:26:51.786Z,6.32
2022-10-31T15:29:24.332Z,6.70
2022-10-31T15:32:03.370Z,9.07
2022-10-31T15:35:00.023Z,9.25
2022-10-31T15:47:20.470Z,6.75
2022-10-31T15:49:55.684Z,7.13
2022-10-31T15:53:04.304Z,6.32
2022-10-31T15:55:37.696Z,8.18
2022-10-31T15:58:26.053Z,7.13
2022-10-31T16:01:06.923Z,7.22
2022-10-31T16:03:35.110Z,6.70
2022-10-31T16:06:06.547Z,6.80
2022-10-31T16:08:49.098Z,6.57
2022-10-31T16:14:04.028Z,6.80
2022-10-31T16:16:36.546Z,6.72
2022-10-31T16:19:16.568Z,6.90
2022-10-31T16:21:43.832Z,6.60
2022-10-31T16:24:28.951Z,6.68
2022-10-31T16:27:16.634Z,6.50
2022-10-31T16:29:46.228Z,7.30
2022-10-31T16:32:42.182Z,7.15
2022-10-31T16:35:10.546Z,7.65
2022-10-31T16:37:44.375Z,6.85
2022-10-31T16:40:53.195Z,7.70
2022-10-31T16:43:29.289Z,6.45
2022-10-31T16:48:54.465Z,7.05
2022-10-31T16:51:34.582Z,6.53
2022-10-31T16:54:04.723Z,7.00
2022-10-31T16:56:39.511Z,7.30
2022-10-31T16:59:15.837Z,7.07
2022-10-31T17:02:23.959Z,6.43
2022-10-31T17:05:22.624Z,6.97
2022-10-31T17:07:59.556Z,6.55
2022-10-31T17:10:30.718Z,6.68
2022-10-31T17:17:38.524Z,6.47
2022-10-31T17:21:01.293Z,7.13
2022-10-31T17:23:39.992Z,6.05
2022-10-31T17:26:13.052Z,14.25
2022-10-31T17:28:50.231Z,9.25
2022-10-31T17:31:29.700Z,8.45
2022-10-31T17:34:02.466Z,7.32
2022-10-31T17:39:30.863Z,6.53
2022-10-31T17:41:58.183Z,7.18
2022-10-31T17:44:34.337Z,7.35
2022-10-31T17:47:02.557Z,6.57
2022-10-31T17:49:35.781Z,6.68
2022-10-31T17:52:03.353Z,6.50
2022-10-31T17:54:50.616Z,7.00
2022-10-31T17:57:52.645Z,7.05
2022-10-31T18:00:27.561Z,7.17
2022-10-31T18:02:55.075Z,7.80
2022-10-31T18:05:35.591Z,8.40
2022-10-31T18:08:06.064Z,7.60
2022-10-31T18:10:49.100Z,6.70
2022-10-31T18:16:55.085Z,6.37
2022-10-31T18:19:22.846Z,6.45
2022-10-31T18:22:01.804Z,6.90
2022-10-31T18:24:43.305Z,6.35
2022-10-31T18:27:47.279Z,5.88
2022-10-31T18:30:33.555Z,5.57
2022-10-31T18:33:23.539Z,4.95
2022-10-31T18:36:28.670Z,5.55
2022-10-31T18:39:04.098Z,5.60
2022-10-31T18:41:56.378Z,6.05
2022-10-31T18:45:31.325Z,5.15
2022-10-31T18:48:03.901Z,5.32
2022-10-31T18:50:31.309Z,5.45
2022-10-31T18:52:58.913Z,6.30
2022-10-31T18:55:26.453Z,6.32
2022-10-31T18:57:55.548Z,5.97
2022-10-31T19:00:25.050Z,5.40
2022-10-31T19:07:08.312Z,5.57
2022-10-31T19:09:35.773Z,5.47
2022-10-31T19:12:05.818Z,5.50
2022-10-31T19:14:33.116Z,5.90
2022-10-31T19:17:02.350Z,5.47
2022-10-31T19:19:42.272Z,5.18
2022-10-31T19:22:11.115Z,5.93
2022-10-31T19:24:46.967Z,6.25
2022-10-31T19:27:21.954Z,6.15
2022-10-31T19:29:49.313Z,5.80
2022-10-31T19:32:16.452Z,6.32
2022-10-31T19:34:43.957Z,6.53
2022-10-31T19:37:17.299Z,5.97
2022-10-31T19:39:47.318Z,6.35
2022-10-31T19:42:14.525Z,5.70
2022-10-31T19:44:41.577Z,6.47
2022-10-31T19:47:15.860Z,6.57
2022-10-31T19:49:45.755Z,5.60
2022-10-31T19:52:12.923Z,5.65
2022-10-31T19:54:43.394Z,5.40
2022-10-31T19:57:10.619Z,5.38
2022-10-31T19:59:43.833Z,5.10
2022-10-31T20:02:20.042Z,5.95
2022-10-31T20:04:47.133Z,6.43
2022-10-31T20:07:17.245Z,4.93
2022-10-31T20:09:53.143Z,5.50
2022-10-31T20:12:25.266Z,5.85
2022-10-31T20:15:10.444Z,5.05
2022-10-31T20:18:11.574Z,4.43
2022-10-31T20:20:38.993Z,3.92
2022-10-31T20:23:21.752Z,4.20
2022-10-31T20:25:51.929Z,4.18
2022-10-31T20:28:21.695Z,4.25
2022-10-31T20:31:42.096Z,3.78
2022-10-31T20:34:08.674Z,3.78
2022-10-31T20:36:44.444Z,3.65
2022-10-31T20:39:56.594Z,3.33
2022-10-31T20:42:34.072Z,3.13
2022-10-31T20:45:10.995Z,2.75
2022-10-31T20:48:35.403Z,3.58
2022-10-31T20:59:43.015Z,2.42
2022-10-31T21:02:41.895Z,2.65
2022-10-31T21:12:39.982Z,2.80
2022-10-31T21:15:17.319Z,3.08
2022-10-31T21:17:55.833Z,2.63
2022-10-31T21:20:59.092Z,3.17
2022-10-31T21:23:37.238Z,2.53
2022-10-31T21:27:11.542Z,2.30
2022-10-31T21:29:45.529Z,3.33
2022-10-31T21:32:14.626Z,2.42
2022-10-31T21:34:50.223Z,2.10
2022-10-31T21:37:17.428Z,2.67
2022-10-31T21:39:49.629Z,2.70
2022-10-31T21:42:21.487Z,2.28
2022-10-31T21:44:52.349Z,2.67
2022-10-31T21:47:24.911Z,2.28
2022-10-31T21:49:55.238Z,2.25
2022-10-31T21:52:26.033Z,2.00
2022-10-31T21:55:15.329Z,2.45
2022-10-31T21:57:42.652Z,2.40
2022-10-31T22:00:47.517Z,2.50
2022-10-31T22:03:14.755Z,2.67
2022-10-31T22:05:41.874Z,2.60
2022-10-31T22:08:08.950Z,2.45
2022-10-31T22:10:36.043Z,2.10
2022-10-31T22:13:06.228Z,1.83
2022-10-31T22:15:36.112Z,2.17
2022-10-31T22:18:03.471Z,2.33
2022-10-31T22:20:33.508Z,1.95
2022-10-31T22:23:34.602Z,2.70
2022-10-31T22:26:34.392Z,1.83
2022-10-31T22:29:03.976Z,1.88
2022-10-31T22:31:32.992Z,1.77
2022-10-31T22:34:03.621Z,2.20
2022-10-31T22:36:31.703Z,3.33
2022-10-31T22:39:02.192Z,1.77
2022-10-31T22:41:32.481Z,2.00
2022-10-31T22:44:03.092Z,1.95
2022-10-31T22:46:35.392Z,2.05
2022-10-31T22:49:08.407Z,2.13
2022-10-31T22:51:38.784Z,1.67
2022-10-31T22:54:09.843Z,1.70
2022-10-31T22:56:40.148Z,1.98
2022-10-31T22:59:07.438Z,2.03
2022-10-31T23:01:34.919Z,1.92
2022-10-31T23:04:04.084Z,2.03
2022-10-31T23:06:48.784Z,2.05
2022-10-31T23:09:42.680Z,1.95
2022-10-31T23:12:33.710Z,1.88
2022-10-31T23:15:16.192Z,1.48
2022-10-31T23:18:08.191Z,2.00
2022-10-31T23:21:09.765Z,1.85
2022-10-31T23:23:40.005Z,1.77
2022-10-31T23:26:28.810Z,1.55
2022-10-31T23:29:07.474Z,1.85
2022-10-31T23:31:34.684Z,1.60
2022-10-31T23:34:09.559Z,2.25
2022-10-31T23:36:40.246Z,1.80
2022-10-31T23:39:11.118Z,2.35
2022-10-31T23:41:48.628Z,2.20
2022-10-31T23:44:21.556Z,1.65
2022-10-31T23:46:51.264Z,2.17
2022-10-31T23:49:18.536Z,1.63
2022-10-31T23:51:45.664Z,1.77
2022-10-31T23:54:16.136Z,1.90
2022-10-31T23:56:45.953Z,1.38
2022-10-31T23:59:13.178Z,1.85
